createdAt,value
2022-12-04T00:02:36.934Z,81.90
2022-12-04T00:05:39.022Z,80.15
2022-12-04T00:08:42.236Z,83.90
2022-12-04T00:11:44.258Z,77.35
2022-12-04T00:15:23.325Z,85.07
2022-12-04T00:18:08.558Z,83.85
2022-12-04T00:21:12.991Z,73.28
2022-12-04T00:24:15.021Z,80.97
2022-12-04T00:27:17.053Z,75.88
2022-12-04T00:30:19.291Z,77.53
2022-12-04T00:33:21.307Z,76.35
2022-12-04T00:36:26.504Z,75.93
2022-12-04T00:39:28.521Z,75.15
2022-12-04T00:42:30.576Z,77.95
2022-12-04T00:45:32.570Z,73.57
2022-12-04T00:48:34.653Z,81.68
2022-12-04T00:51:36.752Z,82.75
2022-12-04T00:54:38.723Z,79.43
2022-12-04T00:57:40.746Z,75.55
2022-12-04T01:00:43.617Z,85.03
2022-12-04T01:03:46.503Z,85.68
2022-12-04T01:06:48.671Z,85.68
2022-12-04T01:09:50.721Z,90.82
2022-12-04T01:12:55.942Z,93.60
2022-12-04T01:15:58.001Z,93.32
2022-12-04T01:19:00.748Z,90.97
2022-12-04T01:22:04.071Z,88.93
2022-12-04T01:25:06.632Z,89.00
2022-12-04T01:28:08.666Z,95.47
2022-12-04T01:31:16.629Z,88.43
2022-12-04T01:34:18.764Z,103.95
2022-12-04T01:37:20.892Z,96.85
2022-12-04T01:40:22.991Z,106.65
2022-12-04T01:43:26.541Z,101.18
2022-12-04T01:46:28.593Z,98.53
2022-12-04T01:49:33.561Z,98.18
2022-12-04T01:52:35.571Z,97.13
2022-12-04T01:55:37.923Z,98.88
2022-12-04T01:58:44.247Z,90.40
2022-12-04T02:01:56.375Z,91.35
2022-12-04T02:04:59.906Z,85.13
2022-12-04T02:08:05.900Z,92.55
2022-12-04T02:11:41.168Z,88.82
2022-12-04T02:15:07.226Z,88.18
2022-12-04T02:18:18.191Z,83.03
2022-12-04T02:21:31.846Z,84.35
2022-12-04T02:25:12.417Z,91.38
2022-12-04T02:28:28.611Z,79.10
2022-12-04T02:31:49.668Z,81.65
2022-12-04T02:35:08.437Z,79.30
2022-12-04T02:38:32.757Z,81.28
2022-12-04T02:41:46.658Z,73.72
2022-12-04T02:44:55.950Z,76.38
2022-12-04T02:48:01.075Z,79.00
2022-12-04T02:51:05.734Z,74.88
2022-12-04T02:54:39.449Z,73.32
2022-12-04T02:57:46.209Z,70.50
2022-12-04T03:00:50.486Z,76.30
2022-12-04T03:04:00.870Z,70.57
2022-12-04T03:07:09.942Z,72.40
2022-12-04T03:10:22.779Z,77.05
2022-12-04T03:13:28.464Z,79.55
2022-12-04T03:16:39.499Z,77.20
2022-12-04T03:19:49.008Z,82.13
2022-12-04T03:22:56.943Z,83.55
2022-12-04T03:26:04.699Z,92.82
2022-12-04T03:29:23.531Z,88.88
2022-12-04T03:32:34.836Z,97.63
2022-12-04T03:35:48.731Z,90.88
2022-12-04T03:38:59.584Z,88.00
2022-12-04T03:42:18.509Z,99.47
2022-12-04T03:45:36.663Z,102.93
2022-12-04T03:49:06.131Z,94.13
2022-12-04T03:52:20.856Z,91.07
2022-12-04T03:55:32.248Z,92.90
2022-12-04T03:58:38.744Z,102.18
2022-12-04T04:01:45.706Z,95.60
2022-12-04T04:04:51.660Z,102.65
2022-12-04T04:08:20.581Z,104.68
2022-12-04T04:11:32.856Z,100.20
2022-12-04T04:15:14.365Z,110.60
2022-12-04T04:18:35.046Z,114.05
2022-12-04T04:21:58.173Z,130.30
2022-12-04T04:25:07.863Z,116.97
2022-12-04T04:28:34.815Z,121.88
2022-12-04T04:31:43.347Z,128.60
2022-12-04T04:35:06.490Z,112.53
2022-12-04T04:38:21.331Z,107.47
2022-12-04T04:41:32.235Z,110.50
2022-12-04T04:44:52.374Z,109.68
2022-12-04T04:48:11.321Z,107.35
2022-12-04T04:51:13.787Z,106.45
2022-12-04T04:54:17.950Z,111.72
2022-12-04T04:57:37.113Z,109.30
2022-12-04T05:00:41.004Z,98.40
2022-12-04T05:03:43.354Z,103.07
2022-12-04T05:06:45.333Z,99.30
2022-12-04T05:09:47.310Z,102.43
2022-12-04T05:12:49.427Z,97.95
2022-12-04T05:16:01.332Z,108.95
2022-12-04T05:19:21.994Z,105.55
2022-12-04T05:22:31.575Z,116.60
2022-12-04T05:25:33.609Z,116.22
2022-12-04T05:28:35.610Z,116.95
2022-12-04T05:31:38.038Z,111.65
2022-12-04T05:34:40.505Z,99.68
2022-12-04T05:37:42.583Z,112.32
2022-12-04T05:40:44.606Z,116.75
2022-12-04T05:43:46.655Z,123.95
2022-12-04T05:46:48.903Z,110.20
2022-12-04T05:49:51.121Z,115.50
2022-12-04T05:52:53.108Z,117.60
2022-12-04T05:55:57.383Z,113.88
2022-12-04T05:58:59.624Z,108.03
2022-12-04T06:02:02.148Z,105.38
2022-12-04T06:05:04.443Z,109.65
2022-12-04T06:08:06.712Z,107.22
2022-12-04T06:11:19.074Z,101.50
2022-12-04T06:14:21.086Z,98.50
2022-12-04T06:17:23.207Z,93.53
2022-12-04T06:20:25.533Z,93.78
2022-12-04T06:23:27.579Z,88.60
2022-12-04T06:26:29.892Z,94.63
2022-12-04T06:29:32.854Z,87.80
2022-12-04T06:32:34.887Z,95.30
2022-12-04T06:35:36.885Z,90.60
2022-12-04T06:38:40.554Z,95.75
2022-12-04T06:41:42.657Z,94.90
2022-12-04T06:44:44.727Z,91.45
2022-12-04T06:47:46.695Z,93.35
2022-12-04T06:50:48.786Z,92.18
2022-12-04T06:53:51.139Z,95.57
2022-12-04T06:56:53.108Z,89.57
2022-12-04T06:59:55.383Z,97.88
2022-12-04T07:02:57.662Z,96.90
2022-12-04T07:05:59.645Z,101.68
2022-12-04T07:09:06.846Z,102.57
2022-12-04T07:12:08.884Z,105.40
2022-12-04T07:15:11.075Z,103.57
2022-12-04T07:18:13.121Z,102.20
2022-12-04T07:21:18.644Z,93.68
2022-12-04T07:24:20.931Z,103.30
2022-12-04T07:27:22.918Z,99.70
2022-12-04T07:30:25.068Z,112.25
2022-12-04T07:33:27.077Z,99.68
2022-12-04T07:36:29.095Z,97.63
2022-12-04T07:39:31.304Z,85.10
2022-12-04T07:42:33.547Z,95.63
2022-12-04T07:45:37.226Z,95.70
2022-12-04T07:48:39.406Z,91.53
2022-12-04T07:51:41.471Z,98.22
2022-12-04T07:54:43.467Z,104.18
2022-12-04T07:57:45.541Z,90.50
2022-12-04T08:00:47.660Z,91.38
2022-12-04T08:03:51.913Z,87.40
2022-12-04T08:06:53.886Z,88.72
2022-12-04T08:09:56.184Z,87.40
2022-12-04T08:12:58.401Z,86.07
2022-12-04T08:16:08.413Z,77.25
2022-12-04T08:19:10.474Z,76.45
2022-12-04T08:22:12.866Z,72.03
2022-12-04T08:25:14.941Z,71.57
2022-12-04T08:28:17.942Z,76.18
2022-12-04T08:31:22.712Z,70.65
2022-12-04T08:34:25.215Z,71.03
2022-12-04T08:37:27.659Z,66.32
2022-12-04T08:40:29.741Z,73.00
2022-12-04T08:43:31.799Z,72.25
2022-12-04T08:46:33.890Z,68.93
2022-12-04T08:49:35.983Z,75.95
2022-12-04T08:52:38.004Z,70.90
2022-12-04T08:55:40.026Z,65.95
2022-12-04T08:58:42.394Z,69.47
2022-12-04T09:01:45.025Z,74.13
2022-12-04T09:04:51.268Z,72.32
2022-12-04T09:07:53.740Z,67.15
2022-12-04T09:10:56.249Z,68.88
2022-12-04T09:13:58.848Z,67.90
2022-12-04T09:17:02.223Z,62.42
2022-12-04T09:20:06.683Z,65.15
2022-12-04T09:23:09.531Z,67.60
2022-12-04T09:26:30.665Z,60.90
2022-12-04T09:29:33.214Z,65.82
2022-12-04T09:32:35.726Z,69.28
2022-12-04T09:35:42.274Z,63.70
2022-12-04T09:38:50.762Z,67.38
2022-12-04T09:42:25.939Z,67.63
2022-12-04T09:45:33.277Z,61.40
2022-12-04T09:48:39.991Z,64.70
2022-12-04T09:51:42.786Z,68.13
2022-12-04T09:54:46.603Z,62.90
2022-12-04T09:57:53.984Z,70.05
2022-12-04T10:01:03.877Z,60.67
2022-12-04T10:04:06.831Z,53.30
2022-12-04T10:07:26.578Z,54.95
2022-12-04T10:10:45.426Z,59.45
2022-12-04T10:13:59.786Z,51.88
2022-12-04T10:17:20.731Z,55.63
2022-12-04T10:21:01.337Z,54.00
2022-12-04T10:24:38.818Z,56.70
2022-12-04T10:28:08.392Z,55.95
2022-12-04T10:31:14.357Z,59.28
2022-12-04T10:34:26.532Z,53.20
2022-12-04T10:37:28.896Z,55.42
2022-12-04T10:40:47.289Z,51.45
2022-12-04T10:43:50.674Z,54.45
2022-12-04T10:46:58.527Z,46.67
2022-12-04T10:50:13.671Z,53.50
2022-12-04T10:53:17.036Z,50.92
2022-12-04T10:56:24.408Z,50.05
2022-12-04T10:59:26.862Z,56.30
2022-12-04T11:02:38.031Z,53.28
2022-12-04T11:05:55.509Z,51.92
2022-12-04T11:08:59.578Z,54.08
2022-12-04T11:12:18.067Z,47.72
2022-12-04T11:15:20.451Z,58.40
2022-12-04T11:18:24.606Z,51.80
2022-12-04T11:21:30.997Z,55.00
2022-12-04T11:24:38.078Z,49.30
2022-12-04T11:27:40.536Z,49.95
2022-12-04T11:30:56.073Z,54.10
2022-12-04T11:34:02.672Z,48.50
2022-12-04T11:37:07.289Z,49.03
2022-12-04T11:40:19.585Z,46.08
2022-12-04T11:43:25.380Z,49.25
2022-12-04T11:46:32.692Z,48.50
2022-12-04T11:49:38.467Z,46.75
2022-12-04T11:52:57.008Z,47.63
2022-12-04T11:56:20.830Z,50.10
2022-12-04T11:59:47.528Z,50.03
2022-12-04T12:03:00.360Z,44.63
2022-12-04T12:06:27.146Z,46.95
2022-12-04T12:09:47.320Z,41.78
2022-12-04T12:13:03.853Z,51.40
2022-12-04T12:16:21.118Z,47.08
2022-12-04T12:20:01.744Z,47.55
2022-12-04T12:23:28.767Z,47.80
2022-12-04T12:26:56.352Z,43.88
2022-12-04T12:30:21.275Z,44.35
2022-12-04T12:33:33.169Z,44.63
2022-12-04T12:36:43.996Z,44.67
2022-12-04T12:39:58.635Z,46.15
2022-12-04T12:43:35.142Z,41.90
2022-12-04T12:46:54.487Z,42.28
2022-12-04T12:50:01.484Z,43.47
2022-12-04T12:53:14.576Z,40.42
2022-12-04T12:56:19.460Z,43.40
2022-12-04T12:59:27.957Z,42.85
2022-12-04T13:02:44.897Z,45.90
2022-12-04T13:05:51.435Z,39.47
2022-12-04T13:09:32.851Z,43.55
2022-12-04T13:12:47.432Z,42.80
2022-12-04T13:15:55.646Z,40.88
2022-12-04T13:19:23.103Z,43.45
2022-12-04T13:23:04.958Z,44.00
2022-12-04T13:26:14.817Z,40.55
2022-12-04T13:32:37.314Z,44.30
2022-12-04T13:35:54.104Z,43.08
2022-12-04T13:39:44.218Z,41.90
2022-12-04T13:42:46.840Z,42.30
2022-12-04T13:45:51.447Z,41.40
2022-12-04T13:48:53.562Z,39.38
2022-12-04T13:51:57.334Z,39.67
2022-12-04T13:55:00.519Z,40.42
2022-12-04T13:58:10.322Z,40.70
2022-12-04T14:04:47.182Z,38.47
2022-12-04T14:08:07.142Z,39.63
2022-12-04T14:11:20.660Z,37.35
2022-12-04T14:14:25.034Z,40.70
2022-12-04T14:17:33.968Z,40.42
2022-12-04T14:20:36.377Z,41.13
2022-12-04T14:23:43.853Z,39.67
2022-12-04T14:27:10.598Z,38.30
2022-12-04T14:30:23.596Z,36.90
2022-12-04T14:33:28.439Z,39.70
2022-12-04T14:36:36.803Z,36.40
2022-12-04T14:39:46.707Z,38.75
2022-12-04T14:42:50.408Z,37.60
2022-12-04T14:46:22.439Z,33.30
2022-12-04T14:49:41.324Z,34.58
2022-12-04T14:53:08.359Z,35.47
2022-12-04T14:56:47.457Z,36.88
2022-12-04T14:59:52.619Z,33.67
2022-12-04T15:03:00.659Z,36.20
2022-12-04T15:06:09.074Z,36.70
2022-12-04T15:09:40.020Z,32.23
2022-12-04T15:12:50.641Z,35.55
2022-12-04T15:19:01.094Z,33.45
2022-12-04T15:22:30.480Z,36.67
2022-12-04T15:25:45.978Z,41.03
2022-12-04T15:28:56.470Z,41.10
2022-12-04T15:32:03.882Z,36.42
2022-12-04T15:35:09.627Z,34.55
2022-12-04T15:38:15.058Z,36.90
2022-12-04T15:41:31.767Z,32.45
2022-12-04T15:44:35.288Z,42.00
2022-12-04T15:47:50.260Z,41.60
2022-12-04T15:50:58.327Z,48.30
2022-12-04T15:54:03.417Z,43.83
2022-12-04T15:57:50.243Z,46.88
2022-12-04T16:01:04.872Z,64.90
2022-12-04T16:04:23.553Z,52.25
2022-12-04T16:07:29.183Z,49.72
2022-12-04T16:10:34.830Z,46.10
2022-12-04T16:13:38.879Z,49.47
2022-12-04T16:16:44.278Z,43.53
2022-12-04T16:19:47.603Z,44.03
2022-12-04T16:22:53.597Z,45.95
2022-12-04T16:25:56.423Z,47.72
2022-12-04T16:28:59.742Z,51.90
2022-12-04T16:32:03.826Z,49.50
2022-12-04T16:35:07.078Z,49.97
2022-12-04T16:38:20.363Z,52.15
2022-12-04T16:41:23.077Z,51.67
2022-12-04T16:44:26.146Z,55.35
2022-12-04T16:47:28.955Z,71.88
2022-12-04T16:50:31.665Z,58.10
2022-12-04T16:53:34.223Z,58.83
2022-12-04T16:56:45.714Z,56.83
2022-12-04T16:59:48.457Z,57.25
2022-12-04T17:02:51.626Z,57.78
2022-12-04T17:05:54.282Z,53.60
2022-12-04T17:08:57.799Z,50.83
2022-12-04T17:12:00.270Z,50.40
2022-12-04T17:15:02.452Z,51.15
2022-12-04T17:18:11.967Z,55.75
2022-12-04T17:21:16.759Z,53.58
2022-12-04T17:24:19.259Z,52.13
2022-12-04T17:27:22.736Z,47.58
2022-12-04T17:30:25.268Z,44.47
2022-12-04T17:33:27.406Z,46.33
2022-12-04T17:36:32.548Z,45.83
2022-12-04T17:39:41.907Z,60.65
2022-12-04T17:42:44.523Z,45.60
2022-12-04T17:45:46.954Z,52.70
2022-12-04T17:48:50.908Z,55.15
2022-12-04T17:51:53.418Z,57.83
2022-12-04T17:54:55.923Z,62.63
2022-12-04T17:57:58.795Z,62.42
2022-12-04T18:01:11.001Z,70.10
2022-12-04T18:04:13.110Z,70.10
2022-12-04T18:07:15.352Z,67.35
2022-12-04T18:10:17.811Z,51.97
2022-12-04T18:13:20.706Z,60.33
2022-12-04T18:16:23.287Z,48.65
2022-12-04T18:19:28.799Z,55.70
2022-12-04T18:22:30.824Z,74.55
2022-12-04T18:25:33.287Z,68.32
2022-12-04T18:28:36.116Z,80.43
2022-12-04T18:31:38.520Z,107.68
2022-12-04T18:34:41.502Z,93.15
2022-12-04T18:37:43.725Z,88.75
2022-12-04T18:40:46.443Z,79.43
2022-12-04T18:43:48.910Z,61.35
2022-12-04T18:46:51.011Z,71.13
2022-12-04T18:49:53.087Z,54.97
2022-12-04T18:53:00.931Z,52.63
2022-12-04T18:56:03.894Z,53.63
2022-12-04T18:59:09.195Z,53.58
2022-12-04T19:02:12.227Z,66.75
2022-12-04T19:05:15.821Z,53.45
2022-12-04T19:08:18.363Z,51.28
2022-12-04T19:11:20.525Z,51.30
2022-12-04T19:14:24.318Z,54.55
2022-12-04T19:17:27.011Z,53.70
2022-12-04T19:20:29.647Z,51.10
2022-12-04T19:23:32.304Z,51.60
2022-12-04T19:26:35.702Z,51.38
2022-12-04T19:29:43.930Z,55.53
2022-12-04T19:32:46.222Z,57.15
2022-12-04T19:36:04.120Z,53.55
2022-12-04T19:39:07.929Z,62.03
2022-12-04T19:42:12.075Z,67.90
2022-12-04T19:45:14.708Z,65.22
2022-12-04T19:48:17.327Z,54.50
2022-12-04T19:51:21.840Z,56.50
2022-12-04T19:54:27.714Z,64.43
2022-12-04T19:57:30.482Z,84.90
2022-12-04T20:00:34.624Z,65.70
2022-12-04T20:03:37.531Z,62.45
2022-12-04T20:06:43.908Z,71.03
2022-12-04T20:09:52.040Z,73.45
2022-12-04T20:12:54.845Z,61.30
2022-12-04T20:16:02.048Z,74.75
2022-12-04T20:19:07.010Z,81.53
2022-12-04T20:22:10.277Z,82.28
2022-12-04T20:25:12.663Z,62.05
2022-12-04T20:28:18.456Z,63.17
2022-12-04T20:31:29.838Z,70.47
2022-12-04T20:34:32.467Z,117.85
2022-12-04T20:37:36.427Z,75.15
2022-12-04T20:40:39.181Z,65.60
2022-12-04T20:43:42.351Z,58.78
2022-12-04T20:46:45.566Z,96.40
2022-12-04T20:49:48.369Z,73.72
2022-12-04T20:52:51.409Z,62.83
2022-12-04T20:55:55.833Z,65.63
2022-12-04T20:59:00.412Z,89.80
2022-12-04T21:02:02.621Z,146.00
2022-12-04T21:05:05.305Z,61.88
2022-12-04T21:08:08.797Z,69.32
2022-12-04T21:11:11.224Z,73.78
2022-12-04T21:14:37.446Z,68.20
2022-12-04T21:17:40.709Z,76.28
2022-12-04T21:20:42.873Z,78.43
2022-12-04T21:23:44.880Z,85.40
2022-12-04T21:26:47.541Z,76.90
2022-12-04T21:29:50.290Z,96.60
2022-12-04T21:32:52.249Z,74.78
2022-12-04T21:35:54.247Z,85.90
2022-12-04T21:38:56.736Z,77.43
2022-12-04T21:42:17.273Z,79.85
2022-12-04T21:48:21.058Z,72.85
2022-12-04T21:51:55.281Z,71.50
2022-12-04T21:54:48.025Z,62.97
2022-12-04T21:57:49.967Z,75.55
2022-12-04T22:00:52.260Z,66.22
2022-12-04T22:03:56.763Z,65.25
2022-12-04T22:06:58.772Z,65.38
2022-12-04T22:10:05.421Z,65.05
2022-12-04T22:16:15.820Z,55.35
2022-12-04T22:19:18.466Z,59.67
2022-12-04T22:22:20.537Z,59.85
2022-12-04T22:25:22.499Z,61.33
2022-12-04T22:28:24.527Z,60.30
2022-12-04T22:31:28.629Z,63.95
2022-12-04T22:34:30.783Z,67.07
2022-12-04T22:37:32.720Z,55.50
2022-12-04T22:40:45.078Z,56.35
2022-12-04T22:43:47.252Z,77.65
2022-12-04T22:46:49.306Z,66.43
2022-12-04T22:49:51.734Z,58.50
2022-12-04T22:52:53.754Z,59.47
2022-12-04T22:55:55.854Z,64.85
2022-12-04T22:58:58.733Z,63.28
2022-12-04T23:02:00.694Z,65.63
2022-12-04T23:05:02.855Z,65.43
2022-12-04T23:08:05.040Z,66.88
2022-12-04T23:11:13.388Z,67.32
2022-12-04T23:14:15.613Z,66.13
2022-12-04T23:17:18.055Z,79.70
2022-12-04T23:20:20.265Z,84.00
2022-12-04T23:23:22.917Z,81.68
2022-12-04T23:26:31.407Z,71.95
2022-12-04T23:32:55.520Z,68.63
2022-12-04T23:35:59.255Z,82.97
2022-12-04T23:39:01.341Z,65.25
2022-12-04T23:42:03.648Z,59.28
2022-12-04T23:45:07.551Z,63.47
2022-12-04T23:48:10.668Z,63.13
2022-12-04T23:51:14.687Z,63.42
2022-12-04T23:54:16.708Z,62.72
2022-12-04T23:57:18.804Z,63.45
